Time;durP1;ratioP1;P1;durP2;ratioP2;P2;SDS_P1;SDS_P2;PMS_P1;PMS_P2;Temp;Humidity;BMP_temperature;BMP_pressure;BME280_temperature;BME280_humidity;BME280_pressure;Samples;Min_cycle;Max_cycle;Signal;HPM_P1;HPM_P2
2022/11/23 00:00:59;;;;;;;3.38;1.45;;;;;;;9.27;94.50;98749.06;5028286;28;20058;-70
2022/11/23 00:03:24;;;;;;;3.78;1.63;;;;;;;9.25;95.71;98747.44;5027212;28;20082;-73
2022/11/23 00:05:50;;;;;;;5.85;1.75;;;;;;;9.19;95.13;98745.09;5028964;28;20081;-71
2022/11/23 00:08:15;;;;;;;3.33;1.52;;;;;;;9.19;95.47;98745.94;5028077;28;20039;-72
2022/11/23 00:10:40;;;;;;;4.50;1.40;;;;;;;9.15;95.41;98740.84;5010043;28;20107;-72
2022/11/23 00:13:06;;;;;;;7.70;1.80;;;;;;;9.06;95.69;98743.94;5009392;28;20385;-72
2022/11/23 00:15:31;;;;;;;5.50;1.83;;;;;;;8.95;96.14;98738.25;5020624;28;20112;-71
2022/11/23 00:17:59;;;;;;;3.55;1.55;;;;;;;8.88;96.46;98731.53;5028517;28;20026;-71
2022/11/23 00:20:25;;;;;;;4.53;1.52;;;;;;;8.82;96.89;98726.50;5014625;28;20025;-71
2022/11/23 00:22:50;;;;;;;4.47;1.85;;;;;;;8.79;96.85;98740.78;5009580;28;20112;-71
2022/11/23 00:25:15;;;;;;;2.67;1.67;;;;;;;8.77;96.86;98747.06;5017719;28;20397;-71
2022/11/23 00:27:41;;;;;;;2.40;1.58;;;;;;;8.64;97.66;98735.28;5024545;28;20096;-71
2022/11/23 00:30:07;;;;;;;4.53;2.03;;;;;;;8.71;97.99;98752.66;5028568;28;20033;-70
2022/11/23 00:32:32;;;;;;;3.38;1.70;;;;;;;8.58;97.95;98754.97;5026557;28;20381;-70
2022/11/23 00:34:58;;;;;;;5.20;1.40;;;;;;;8.60;98.13;98755.75;5012417;28;20033;-71
2022/11/23 00:37:24;;;;;;;6.43;1.58;;;;;;;8.46;98.74;98739.63;5021078;28;20034;-70
2022/11/23 00:39:49;;;;;;;3.97;1.73;;;;;;;8.56;98.84;98759.50;5008398;28;20037;-71
2022/11/23 00:42:15;;;;;;;3.00;1.33;;;;;;;8.52;99.55;98762.34;5009534;28;20014;-71
2022/11/23 00:44:40;;;;;;;4.68;1.67;;;;;;;8.48;100.00;98742.22;5018112;28;20188;-72
2022/11/23 00:47:05;;;;;;;1.95;1.30;;;;;;;8.55;100.00;98759.56;5024024;28;20068;-71
2022/11/23 00:49:31;;;;;;;1.67;1.30;;;;;;;8.52;100.00;98749.94;5013822;28;20462;-71
2022/11/23 00:51:56;;;;;;;2.95;1.45;;;;;;;8.51;100.00;98745.59;5010356;28;20045;-71
2022/11/23 00:54:22;;;;;;;5.57;1.90;;;;;;;8.62;100.00;98764.53;5019850;28;20041;-72
2022/11/23 00:56:47;;;;;;;3.83;1.90;;;;;;;8.63;100.00;98770.69;5030355;28;20026;-73
2022/11/23 00:59:12;;;;;;;5.28;1.85;;;;;;;8.60;100.00;98770.84;5030337;28;20075;-71
2022/11/23 01:01:38;;;;;;;4.53;2.15;;;;;;;8.60;100.00;98778.78;5030414;28;20041;-73
2022/11/23 01:04:05;;;;;;;5.00;1.92;;;;;;;8.53;100.00;98790.56;5027724;28;20068;-73
2022/11/23 01:06:40;;;;;;;3.67;2.05;;;;;;;8.39;100.00;98777.06;5030528;28;20507;-73
2022/11/23 01:09:10;;;;;;;6.90;2.25;;;;;;;8.46;100.00;98787.34;5030436;28;20107;-73
2022/11/23 01:11:35;;;;;;;7.22;2.50;;;;;;;8.32;100.00;98765.03;5032596;28;20029;-72
2022/11/23 01:14:01;;;;;;;5.15;1.80;;;;;;;8.29;100.00;98775.72;5033494;28;20032;-73
2022/11/23 01:16:29;;;;;;;8.18;1.83;;;;;;;8.27;100.00;98769.66;5034306;28;20506;-73
2022/11/23 01:18:57;;;;;;;2.15;1.60;;;;;;;8.25;100.00;98779.44;5032904;28;20107;-74
2022/11/23 01:21:25;;;;;;;2.05;1.48;;;;;;;8.26;100.00;98781.16;5032615;28;20025;-74
2022/11/23 01:23:50;;;;;;;2.97;2.15;;;;;;;8.16;100.00;98775.38;5032656;28;20030;-73
2022/11/23 01:26:16;;;;;;;3.58;1.50;;;;;;;8.25;100.00;98785.63;5033456;28;20036;-73
2022/11/23 01:28:42;;;;;;;3.47;1.40;;;;;;;8.22;100.00;98785.69;5034122;28;20438;-73
2022/11/23 01:31:16;;;;;;;5.55;1.50;;;;;;;8.21;100.00;98783.09;5032487;28;20018;-73
2022/11/23 01:33:42;;;;;;;2.63;1.10;;;;;;;8.21;100.00;98783.97;5033154;28;20397;-71
2022/11/23 01:36:08;;;;;;;2.90;1.38;;;;;;;8.23;100.00;98786.56;5034023;28;20034;-71
2022/11/23 01:38:33;;;;;;;4.28;1.58;;;;;;;8.27;100.00;98775.78;5033691;28;20025;-71
2022/11/23 01:40:59;;;;;;;4.22;1.50;;;;;;;8.35;100.00;98780.78;5033821;28;20087;-71
2022/11/23 01:43:24;;;;;;;5.22;1.50;;;;;;;8.38;100.00;98778.84;5033800;28;20441;-71
2022/11/23 01:45:52;;;;;;;3.50;1.80;;;;;;;8.45;100.00;98787.41;5033899;28;20063;-71
2022/11/23 01:48:29;;;;;;;3.40;1.48;;;;;;;8.50;100.00;98780.13;5033338;28;20025;-71
2022/11/23 01:50:58;;;;;;;4.60;1.65;;;;;;;8.42;100.00;98761.88;5033453;28;20483;-71
2022/11/23 01:53:25;;;;;;;3.13;1.60;;;;;;;8.57;100.00;98786.84;5033674;28;20499;-72
2022/11/23 01:55:51;;;;;;;4.50;1.73;;;;;;;8.56;100.00;98775.41;5033305;28;20029;-72
2022/11/23 01:58:22;;;;;;;4.50;2.13;;;;;;;8.63;100.00;98776.81;5033169;28;20056;-71
2022/11/23 02:00:48;;;;;;;5.65;1.85;;;;;;;8.70;100.00;98778.28;5033683;28;20045;-71
2022/11/23 02:03:14;;;;;;;8.00;2.90;;;;;;;8.76;100.00;98782.47;5021075;28;20028;-73
2022/11/23 02:05:46;;;;;;;4.28;1.60;;;;;;;8.66;100.00;98770.53;5033411;28;20533;-73
2022/11/23 02:08:15;;;;;;;4.15;1.80;;;;;;;8.80;100.00;98789.34;5033255;28;20104;-72
2022/11/23 02:10:41;;;;;;;3.53;1.73;;;;;;;8.79;100.00;98787.63;5033009;28;20079;-73
2022/11/23 02:13:10;;;;;;;3.75;2.03;;;;;;;8.78;100.00;98796.53;5032474;28;20021;-73
2022/11/23 02:15:36;;;;;;;5.30;2.92;;;;;;;8.82;100.00;98792.78;5032414;28;20033;-72
2022/11/23 02:18:07;;;;;;;7.22;2.45;;;;;;;8.67;100.00;98772.25;5032093;28;20035;-72
2022/11/23 02:20:33;;;;;;;5.70;2.17;;;;;;;8.80;100.00;98802.59;5032330;28;20120;-72
2022/11/23 02:23:36;;;;;;;3.30;1.73;;;;;;;8.79;100.00;98809.69;5031320;28;20116;-72
2022/11/23 02:26:07;;;;;;;4.13;1.90;;;;;;;8.64;100.00;98780.34;5027310;28;20030;-72
2022/11/23 02:28:38;;;;;;;3.05;1.67;;;;;;;8.68;100.00;98788.09;5015723;28;20108;-72
2022/11/23 02:31:04;;;;;;;5.30;1.90;;;;;;;8.82;100.00;98806.03;5015733;28;20036;-72
2022/11/23 02:33:29;;;;;;;5.25;1.88;;;;;;;8.74;100.00;98789.63;5013147;28;20030;-72
2022/11/23 02:36:00;;;;;;;5.90;2.00;;;;;;;8.87;100.00;98796.09;5024097;28;20026;-71
2022/11/23 02:38:29;;;;;;;4.57;1.70;;;;;;;8.84;100.00;98780.31;5032009;28;20033;-71
2022/11/23 02:40:55;;;;;;;6.47;2.20;;;;;;;8.75;100.00;98765.69;5031732;28;20465;-71
2022/11/23 02:43:21;;;;;;;4.55;1.95;;;;;;;8.84;100.00;98778.53;5030280;28;20033;-71
2022/11/23 02:46:00;;;;;;;7.15;1.80;;;;;;;8.86;100.00;98778.47;5031862;28;20027;-70
2022/11/23 02:48:26;;;;;;;3.15;1.73;;;;;;;8.86;100.00;98770.53;5031336;28;20418;-71
2022/11/23 02:50:51;;;;;;;3.13;1.42;;;;;;;8.86;100.00;98767.88;5031813;28;20105;-70
2022/11/23 02:53:17;;;;;;;2.83;1.70;;;;;;;8.80;100.00;98765.47;5032350;28;20048;-70
2022/11/23 02:55:42;;;;;;;7.25;3.15;;;;;;;8.86;100.00;98767.88;5032432;28;20056;-70
2022/11/23 02:58:08;;;;;;;7.22;2.08;;;;;;;8.81;100.00;98764.56;5030829;28;20029;-70
2022/11/23 03:00:34;;;;;;;6.28;2.63;;;;;;;8.74;100.00;98757.81;5030808;28;20049;-71
2022/11/23 03:03:01;;;;;;;5.97;2.03;;;;;;;8.69;100.00;98750.06;5029085;28;20026;-70
2022/11/23 03:05:26;;;;;;;6.53;1.80;;;;;;;8.76;100.00;98755.94;5032207;28;20102;-70
2022/11/23 03:07:52;;;;;;;7.20;2.08;;;;;;;8.61;100.00;98749.56;5030775;28;20021;-70
2022/11/23 03:10:18;;;;;;;3.40;2.00;;;;;;;8.60;100.00;98760.22;5032118;28;20025;-69
2022/11/23 03:12:43;;;;;;;6.75;1.83;;;;;;;8.55;100.00;98759.56;5031906;28;20033;-70
2022/11/23 03:15:10;;;;;;;5.13;2.05;;;;;;;8.49;100.00;98767.78;5032070;28;20025;-69
2022/11/23 03:17:35;;;;;;;4.93;1.90;;;;;;;8.40;100.00;98752.28;5032020;28;20552;-71
2022/11/23 03:20:01;;;;;;;5.47;2.00;;;;;;;8.38;100.00;98759.44;5032187;28;20116;-71
2022/11/23 03:22:26;;;;;;;2.55;1.45;;;;;;;8.30;100.00;98740.38;5032139;28;20029;-73
2022/11/23 03:24:52;;;;;;;6.18;1.98;;;;;;;8.38;100.00;98756.78;5032206;28;20022;-71
2022/11/23 03:27:18;;;;;;;4.72;1.20;;;;;;;8.37;100.00;98753.28;5031663;28;20025;-71
2022/11/23 03:29:43;;;;;;;3.30;1.65;;;;;;;8.39;100.00;98750.56;5031891;28;20028;-72
2022/11/23 03:32:09;;;;;;;2.85;1.58;;;;;;;8.46;100.00;98742.28;5031504;28;20400;-70
2022/11/23 03:34:34;;;;;;;4.38;1.65;;;;;;;8.54;100.00;98747.22;5013884;28;20032;-71
2022/11/23 03:37:00;;;;;;;2.58;1.60;;;;;;;8.55;100.00;98748.97;5011987;28;20029;-71
2022/11/23 03:39:25;;;;;;;3.35;1.60;;;;;;;8.54;100.00;98750.75;5012123;28;20461;-71
2022/11/23 03:41:51;;;;;;;8.95;2.05;;;;;;;8.57;100.00;98753.25;5011755;28;20036;-71
2022/11/23 03:44:16;;;;;;;3.65;2.10;;;;;;;8.59;100.00;98753.19;5023607;28;20036;-70
2022/11/23 03:46:41;;;;;;;4.13;1.42;;;;;;;8.62;100.00;98753.03;5031467;28;20061;-70
2022/11/23 03:49:07;;;;;;;4.32;1.30;;;;;;;8.68;100.00;98750.16;5031323;28;20100;-71
2022/11/23 03:51:32;;;;;;;1.60;1.35;;;;;;;8.71;100.00;98748.22;5031076;28;20556;-70
2022/11/23 03:53:57;;;;;;;3.35;1.70;;;;;;;8.78;99.93;98743.50;5031397;28;20037;-70
2022/11/23 03:56:23;;;;;;;9.65;2.17;;;;;;;8.73;99.58;98743.69;5030402;28;20033;-70
2022/11/23 03:58:48;;;;;;;9.30;3.25;;;;;;;8.73;99.41;98729.59;5031430;28;20072;-70
2022/11/23 04:01:14;;;;;;;4.15;1.50;;;;;;;8.84;99.45;98745.84;5030777;28;20060;-71
2022/11/23 04:03:40;;;;;;;6.95;1.45;;;;;;;8.82;99.40;98745.06;5028631;28;20057;-72
2022/11/23 04:06:06;;;;;;;3.55;1.42;;;;;;;8.83;99.07;98747.63;5031304;28;20032;-70
2022/11/23 04:08:31;;;;;;;4.05;1.63;;;;;;;8.81;98.98;98744.19;5031313;28;20033;-71
2022/11/23 04:10:58;;;;;;;2.03;1.50;;;;;;;8.81;98.72;98738.03;5031041;28;20017;-70
2022/11/23 04:13:23;;;;;;;3.70;1.60;;;;;;;8.74;98.61;98747.19;5031240;28;20033;-70
2022/11/23 04:15:49;;;;;;;3.00;1.55;;;;;;;8.74;98.37;98745.41;5031213;28;20083;-70
2022/11/23 04:18:14;;;;;;;3.53;1.30;;;;;;;8.73;97.84;98745.50;5017857;28;20030;-70
2022/11/23 04:20:40;;;;;;;3.80;1.38;;;;;;;8.68;98.16;98739.53;5011258;28;20238;-70
2022/11/23 04:23:05;;;;;;;4.45;1.40;;;;;;;8.61;98.32;98740.75;5011323;28;20026;-70
2022/11/23 04:25:31;;;;;;;3.78;1.40;;;;;;;8.53;98.45;98742.88;5011368;28;20529;-71
2022/11/23 04:27:56;;;;;;;5.03;1.40;;;;;;;8.46;98.61;98737.00;5013591;28;20097;-70
2022/11/23 04:30:22;;;;;;;1.98;1.48;;;;;;;8.36;99.14;98729.50;5013792;28;20072;-70
2022/11/23 04:32:47;;;;;;;4.05;1.83;;;;;;;8.32;99.04;98736.72;5011092;28;20037;-70
2022/11/23 04:35:13;;;;;;;3.28;1.92;;;;;;;8.32;99.19;98743.81;5011334;28;20121;-70
2022/11/23 04:37:38;;;;;;;6.30;1.55;;;;;;;8.20;99.09;98713.41;5016992;28;20057;-71
2022/11/23 04:40:04;;;;;;;5.32;1.42;;;;;;;8.24;99.38;98738.00;5030731;28;20029;-70
2022/11/23 04:42:30;;;;;;;7.90;1.58;;;;;;;8.17;99.49;98739.16;5030817;28;20488;-70
2022/11/23 04:44:56;;;;;;;5.00;1.88;;;;;;;8.10;99.52;98743.00;5030628;28;20108;-70
2022/11/23 04:47:22;;;;;;;4.97;1.90;;;;;;;8.05;99.95;98738.75;5034345;28;20053;-70
2022/11/23 04:49:48;;;;;;;5.07;1.70;;;;;;;7.92;100.00;98719.00;5034750;28;20064;-70
2022/11/23 04:52:13;;;;;;;7.00;1.73;;;;;;;7.97;100.00;98737.38;5034801;28;20516;-70
2022/11/23 04:54:39;;;;;;;3.38;1.50;;;;;;;7.91;100.00;98738.47;5049831;28;20039;-70
2022/11/23 04:57:04;;;;;;;4.30;1.65;;;;;;;7.85;100.00;98729.94;5034686;28;20021;-70
2022/11/23 04:59:30;;;;;;;7.47;2.15;;;;;;;7.79;100.00;98728.41;5034330;28;20068;-70
2022/11/23 05:01:55;;;;;;;5.30;1.70;;;;;;;7.74;100.00;98735.66;5049643;28;20042;-70
2022/11/23 05:04:20;;;;;;;9.52;2.70;;;;;;;7.59;100.00;98719.56;5034294;28;20396;-70
2022/11/23 05:06:46;;;;;;;3.95;1.80;;;;;;;7.64;100.00;98739.63;5034587;28;20089;-70
2022/11/23 05:09:11;;;;;;;4.13;1.70;;;;;;;7.55;100.00;98740.00;5034363;28;20053;-70
2022/11/23 05:11:37;;;;;;;6.05;2.40;;;;;;;7.49;100.00;98728.81;5034483;28;20097;-69
2022/11/23 05:14:02;;;;;;;4.85;1.70;;;;;;;7.50;100.00;98743.75;5034323;28;20028;-70
2022/11/23 05:16:28;;;;;;;7.40;2.00;;;;;;;7.43;100.00;98750.22;5034074;28;20029;-69
2022/11/23 05:18:53;;;;;;;15.80;2.60;;;;;;;7.38;100.00;98742.47;5026758;28;20113;-70
2022/11/23 05:21:19;;;;;;;6.78;2.63;;;;;;;7.37;100.00;98746.03;5034154;28;20055;-70
2022/11/23 05:23:44;;;;;;;15.15;3.10;;;;;;;7.40;100.00;98740.63;5034297;28;20021;-70
2022/11/23 05:26:10;;;;;;;9.43;2.58;;;;;;;7.40;100.00;98739.75;5049360;28;20195;-70
2022/11/23 05:28:36;;;;;;;6.70;2.30;;;;;;;7.36;100.00;98744.34;5034062;28;20049;-70
2022/11/23 05:31:03;;;;;;;5.82;2.30;;;;;;;7.33;100.00;98743.59;5049189;28;20431;-71
2022/11/23 05:33:28;;;;;;;9.05;2.67;;;;;;;7.29;100.00;98742.84;5033917;28;20045;-72
2022/11/23 05:35:53;;;;;;;6.78;2.63;;;;;;;7.26;100.00;98742.97;5033602;28;20072;-71
2022/11/23 05:38:19;;;;;;;3.75;2.00;;;;;;;7.26;100.00;98734.16;5033903;28;20470;-70
2022/11/23 05:40:45;;;;;;;5.32;2.03;;;;;;;7.35;100.00;98744.38;5033698;28;20029;-70
2022/11/23 05:43:11;;;;;;;7.95;2.50;;;;;;;7.40;100.00;98745.91;5033816;28;20033;-71
2022/11/23 05:45:37;;;;;;;9.50;2.58;;;;;;;7.42;100.00;98745.84;5033529;28;20385;-70
2022/11/23 05:48:02;;;;;;;5.47;2.38;;;;;;;7.43;100.00;98750.22;5033775;28;20033;-71
2022/11/23 05:50:28;;;;;;;4.30;1.98;;;;;;;7.47;100.00;98752.69;5033637;28;20497;-70
2022/11/23 05:52:56;;;;;;;5.07;2.42;;;;;;;7.49;100.00;98742.03;5033806;28;20029;-71
2022/11/23 05:55:21;;;;;;;9.90;3.63;;;;;;;7.51;100.00;98748.97;5033148;28;20040;-70
2022/11/23 05:57:47;;;;;;;10.32;4.25;;;;;;;7.53;100.00;98754.19;5032436;28;20029;-70
2022/11/23 06:00:13;;;;;;;8.88;3.00;;;;;;;7.48;100.00;98748.28;5031802;28;20050;-71
2022/11/23 06:02:38;;;;;;;6.25;2.80;;;;;;;7.33;100.00;98733.84;5031375;28;20055;-70
2022/11/23 06:05:04;;;;;;;8.98;3.80;;;;;;;7.36;100.00;98749.63;5031163;28;20022;-70
2022/11/23 06:07:33;;;;;;;7.65;2.63;;;;;;;7.32;100.00;98742.72;5033464;28;20060;-70
2022/11/23 06:09:59;;;;;;;6.63;2.33;;;;;;;7.26;100.00;98747.38;5033087;28;20037;-70
2022/11/23 06:12:24;;;;;;;29.38;5.32;;;;;;;7.15;100.00;98746.97;5033266;28;20025;-70
2022/11/23 06:14:49;;;;;;;16.63;6.85;;;;;;;7.13;100.00;98754.97;5033021;28;20032;-70
2022/11/23 06:17:15;;;;;;;17.67;6.03;;;;;;;7.07;100.00;98757.81;5033219;28;20398;-70
2022/11/23 06:19:40;;;;;;;15.48;5.95;;;;;;;6.96;100.00;98760.00;5031601;28;20033;-70
2022/11/23 06:22:06;;;;;;;11.45;4.65;;;;;;;6.84;100.00;98755.19;5030031;28;20075;-70
2022/11/23 06:24:32;;;;;;;9.32;5.00;;;;;;;6.66;100.00;98740.03;5032852;28;20041;-70
2022/11/23 06:26:57;;;;;;;12.60;5.45;;;;;;;6.56;100.00;98742.16;5029941;28;20492;-70
2022/11/23 06:29:22;;;;;;;9.70;4.95;;;;;;;6.56;100.00;98752.72;5032895;28;20037;-71
2022/11/23 06:31:48;;;;;;;13.15;6.47;;;;;;;6.50;100.00;98754.72;5029856;28;20092;-70
2022/11/23 06:34:13;;;;;;;15.15;5.60;;;;;;;6.36;100.00;98746.41;5017523;28;20046;-71
2022/11/23 06:36:39;;;;;;;11.05;5.47;;;;;;;6.37;100.00;98762.25;5013200;28;20026;-71
2022/11/23 06:39:05;;;;;;;8.95;3.88;;;;;;;6.31;100.00;98758.97;5012956;28;20029;-71
2022/11/23 06:41:30;;;;;;;6.63;4.25;;;;;;;6.09;100.00;98744.78;5013039;28;20271;-71
2022/11/23 06:43:55;;;;;;;6.65;3.83;;;;;;;6.09;100.00;98758.84;5014446;28;20040;-71
2022/11/23 06:46:21;;;;;;;8.05;3.65;;;;;;;6.04;100.00;98754.63;5012818;28;20036;-71
2022/11/23 06:48:47;;;;;;;5.82;2.90;;;;;;;5.89;100.00;98739.31;5013089;28;20026;-71
2022/11/23 06:51:13;;;;;;;8.80;3.85;;;;;;;5.94;100.00;98763.78;5020732;28;20370;-71
2022/11/23 06:53:39;;;;;;;8.45;3.55;;;;;;;5.87;100.00;98763.13;5031108;28;20040;-71
2022/11/23 06:56:05;;;;;;;5.68;3.15;;;;;;;5.75;100.00;98745.03;5032335;28;20026;-71
2022/11/23 06:58:30;;;;;;;5.75;2.55;;;;;;;5.82;100.00;98772.97;5031653;28;20643;-71
2022/11/23 07:01:04;;;;;;;4.13;2.50;;;;;;;5.80;100.00;98766.00;5029500;28;20054;-71
2022/11/23 07:03:30;;;;;;;5.45;2.20;;;;;;;5.77;100.00;98766.06;5028311;28;20120;-71
2022/11/23 07:05:55;;;;;;;4.13;2.00;;;;;;;5.73;100.00;98769.75;5031084;28;20104;-70
2022/11/23 07:08:21;;;;;;;3.63;1.90;;;;;;;5.75;100.00;98775.84;5018223;28;20097;-71
2022/11/23 07:10:47;;;;;;;4.55;2.03;;;;;;;5.73;100.00;98775.88;5010629;28;20030;-71
2022/11/23 07:13:13;;;;;;;4.43;2.00;;;;;;;5.73;100.00;98775.03;5011907;28;20504;-71
2022/11/23 07:15:39;;;;;;;4.35;2.20;;;;;;;5.65;100.00;98761.22;5023257;28;20116;-71
2022/11/23 07:18:04;;;;;;;3.67;2.10;;;;;;;5.69;100.00;98778.66;5027120;28;20501;-71
2022/11/23 07:20:30;;;;;;;5.05;2.35;;;;;;;5.77;100.00;98788.03;5012616;28;20572;-71
2022/11/23 07:23:00;;;;;;;12.52;4.47;;;;;;;5.80;100.00;98787.94;5013862;28;20052;-71
2022/11/23 07:25:27;;;;;;;4.95;2.70;;;;;;;5.86;100.00;98786.91;5024679;28;20611;-71
2022/11/23 07:28:00;;;;;;;5.60;2.05;;;;;;;5.92;100.00;98792.84;5030920;28;20127;-71
2022/11/23 07:30:27;;;;;;;4.63;2.83;;;;;;;6.15;100.00;98794.69;5025997;28;20034;-71
2022/11/23 07:32:53;;;;;;;5.13;2.08;;;;;;;6.39;100.00;98784.16;5015516;28;20030;-71
2022/11/23 07:35:19;;;;;;;5.47;2.63;;;;;;;6.51;100.00;98780.19;5019279;28;20048;-71
2022/11/23 07:37:45;;;;;;;6.78;3.78;;;;;;;6.62;100.00;98770.13;5025555;28;20570;-71
2022/11/23 07:40:12;;;;;;;7.53;3.90;;;;;;;6.78;100.00;98792.41;5013750;28;20057;-72
2022/11/23 07:42:37;;;;;;;10.15;4.60;;;;;;;6.95;100.00;98795.31;5019976;28;20078;-71
2022/11/23 07:45:04;;;;;;;11.38;4.20;;;;;;;7.32;100.00;98792.97;5018129;28;20137;-70
2022/11/23 07:47:30;;;;;;;13.68;4.90;;;;;;;7.88;100.00;98796.84;5012169;28;20040;-71
2022/11/23 07:49:55;;;;;;;12.43;5.40;;;;;;;8.29;100.00;98776.59;5013276;28;20029;-71
2022/11/23 07:52:21;;;;;;;10.07;5.60;;;;;;;9.60;100.00;98780.25;5015203;28;20374;-70
2022/11/23 07:54:46;;;;;;;11.80;6.45;;;;;;;11.30;100.00;98771.34;5026331;28;20037;-70
2022/11/23 07:57:12;;;;;;;9.25;6.03;;;;;;;13.29;92.35;98770.06;5031816;28;20457;-71
2022/11/23 07:59:37;;;;;;;9.23;5.70;;;;;;;15.23;76.72;98760.34;5013276;28;20057;-71
2022/11/23 08:02:03;;;;;;;7.60;4.72;;;;;;;17.00;62.98;98761.28;5012687;28;20038;-70
2022/11/23 08:04:29;;;;;;;10.65;5.30;;;;;;;18.46;53.92;98768.06;5032555;28;20057;-70
2022/11/23 08:06:55;;;;;;;11.70;5.28;;;;;;;19.64;48.68;98763.94;5012273;28;20025;-71
2022/11/23 08:09:20;;;;;;;9.25;4.40;;;;;;;20.66;45.60;98772.50;5015094;28;20656;-70
2022/11/23 08:11:45;;;;;;;9.52;5.95;;;;;;;21.33;43.13;98778.69;5016846;28;20028;-71
2022/11/23 08:14:11;;;;;;;10.48;5.00;;;;;;;21.81;42.01;98776.66;5010682;28;20033;-71
2022/11/23 08:16:37;;;;;;;11.77;5.30;;;;;;;21.91;40.27;98777.47;5011116;28;20120;-71
2022/11/23 08:19:02;;;;;;;8.82;4.32;;;;;;;20.69;41.13;98786.59;5013920;28;20033;-70
2022/11/23 08:21:28;;;;;;;10.82;5.50;;;;;;;19.99;43.17;98769.72;5010892;28;20116;-70
2022/11/23 08:23:53;;;;;;;9.80;4.03;;;;;;;18.97;43.78;98770.81;5031929;28;20037;-70
2022/11/23 08:26:19;;;;;;;7.70;3.53;;;;;;;17.26;46.32;98770.81;5013431;28;20029;-71
2022/11/23 08:28:44;;;;;;;15.68;3.33;;;;;;;15.76;49.77;98788.69;5012160;28;20132;-71
2022/11/23 08:31:10;;;;;;;6.03;2.85;;;;;;;14.60;53.40;98782.72;5016890;28;20029;-71
2022/11/23 08:33:37;;;;;;;9.25;3.17;;;;;;;13.68;57.38;98787.09;5013389;28;20034;-71
2022/11/23 08:36:04;;;;;;;7.22;2.50;;;;;;;13.23;63.40;98766.84;5013641;28;20041;-72
2022/11/23 08:38:31;;;;;;;7.47;3.10;;;;;;;15.13;62.54;98775.34;5010457;28;20067;-72
2022/11/23 08:40:58;;;;;;;5.32;2.28;;;;;;;17.33;53.67;98769.31;5012735;28;20127;-72
2022/11/23 08:43:23;;;;;;;6.32;2.60;;;;;;;19.27;48.46;98762.78;5012057;28;20034;-72
2022/11/23 08:45:49;;;;;;;7.05;2.50;;;;;;;20.89;43.44;98755.84;5012259;28;20469;-71
2022/11/23 08:48:14;;;;;;;4.40;2.00;;;;;;;21.99;41.33;98774.03;5017035;28;20116;-72
2022/11/23 08:50:40;;;;;;;5.82;2.10;;;;;;;22.65;39.45;98775.41;5014909;28;20542;-71
2022/11/23 08:53:05;;;;;;;3.05;1.83;;;;;;;23.06;38.42;98765.75;5014306;28;20033;-72
2022/11/23 08:55:31;;;;;;;4.75;1.65;;;;;;;23.52;37.99;98772.69;5011783;28;20046;-71
2022/11/23 08:57:57;;;;;;;8.25;1.77;;;;;;;23.49;37.11;98767.59;5013719;28;20662;-71
2022/11/23 09:00:24;;;;;;;3.78;1.48;;;;;;;23.61;36.81;98769.03;5013189;28;20049;-71
2022/11/23 09:02:49;;;;;;;6.93;1.60;;;;;;;23.76;36.71;98775.53;5024350;28;20108;-71
2022/11/23 09:05:14;;;;;;;2.65;1.17;;;;;;;23.87;35.85;98783.41;5014233;28;20112;-71
2022/11/23 09:07:40;;;;;;;5.93;1.55;;;;;;;23.73;36.44;98770.41;5013573;28;20079;-71
2022/11/23 09:10:06;;;;;;;6.75;2.05;;;;;;;24.06;36.04;98766.84;5012973;28;20038;-71
2022/11/23 09:12:32;;;;;;;4.90;1.05;;;;;;;24.57;35.66;98766.63;5011587;28;20037;-71
2022/11/23 09:14:57;;;;;;;4.82;1.20;;;;;;;24.25;35.81;98772.84;5018346;28;20053;-71
2022/11/23 09:17:23;;;;;;;5.85;1.15;;;;;;;24.13;35.43;98770.63;5012459;28;20112;-71
2022/11/23 09:19:49;;;;;;;3.65;1.30;;;;;;;24.11;35.87;98764.50;5015048;28;20030;-71
2022/11/23 09:22:14;;;;;;;6.82;1.67;;;;;;;23.77;36.68;98774.53;5014864;28;20128;-71
2022/11/23 09:24:40;;;;;;;5.65;1.83;;;;;;;23.42;36.44;98768.25;5012704;28;20042;-71
2022/11/23 09:27:05;;;;;;;4.20;1.63;;;;;;;23.53;36.70;98769.81;5016314;28;20025;-71
2022/11/23 09:29:31;;;;;;;3.60;1.13;;;;;;;23.48;36.80;98774.88;5014227;28;20786;-71
2022/11/23 09:31:56;;;;;;;8.38;1.73;;;;;;;23.39;36.04;98765.81;5013414;28;20028;-71
2022/11/23 09:34:22;;;;;;;3.80;1.52;;;;;;;23.12;36.75;98755.13;5016342;28;20374;-71
2022/11/23 09:36:47;;;;;;;5.50;1.45;;;;;;;23.62;36.60;98762.56;5031841;28;20044;-71
2022/11/23 09:39:13;;;;;;;5.13;2.08;;;;;;;23.83;35.42;98774.72;5015087;28;20033;-71
2022/11/23 09:41:56;;;;;;;3.10;1.65;;;;;;;23.76;35.85;98773.66;5020151;28;20057;-71
2022/11/23 09:44:40;;;;;;;5.53;1.23;;;;;;;23.40;37.14;98769.41;5017745;28;20144;-71
2022/11/23 09:47:26;;;;;;;3.75;1.45;;;;;;;23.27;36.41;98766.28;5027040;28;20033;-71
2022/11/23 09:50:10;;;;;;;3.33;1.33;;;;;;;23.12;37.47;98774.09;5020519;28;20397;-71
2022/11/23 09:52:41;;;;;;;5.90;1.42;;;;;;;23.19;37.36;98766.19;5018807;28;20033;-71
2022/11/23 09:55:48;;;;;;;4.20;1.25;;;;;;;22.64;37.83;98768.28;5020296;28;20037;-70
2022/11/23 09:58:20;;;;;;;2.92;1.30;;;;;;;22.52;38.54;98769.47;5010992;28;20077;-71
2022/11/23 10:01:10;;;;;;;3.35;1.48;;;;;;;22.24;38.95;98761.59;5022732;28;20115;-70
2022/11/23 10:03:38;;;;;;;5.78;1.20;;;;;;;22.17;38.52;98767.59;5019981;28;20056;-70
2022/11/23 10:06:17;;;;;;;6.68;1.08;;;;;;;22.84;37.88;98766.25;5022238;28;20033;-70
2022/11/23 10:09:07;;;;;;;5.65;1.45;;;;;;;23.13;37.55;98764.13;5018454;28;20030;-70
2022/11/23 10:11:32;;;;;;;5.95;1.75;;;;;;;23.33;37.17;98763.75;5016363;28;20036;-70
2022/11/23 10:14:33;;;;;;;6.85;1.58;;;;;;;22.49;37.65;98766.25;5016459;28;20038;-70
2022/11/23 10:17:12;;;;;;;4.43;1.60;;;;;;;21.83;39.05;98762.97;5017858;28;20481;-70
2022/11/23 10:20:15;;;;;;;11.55;1.27;;;;;;;22.16;39.36;98757.78;5018170;28;20041;-70
2022/11/23 10:23:05;;;;;;;6.18;1.20;;;;;;;22.42;38.82;98762.47;5017439;28;20034;-70
2022/11/23 10:25:41;;;;;;;3.88;1.42;;;;;;;22.73;37.85;98751.09;5020135;28;20045;-70
2022/11/23 10:28:12;;;;;;;3.65;1.17;;;;;;;22.24;38.23;98750.75;5016617;28;20101;-70
2022/11/23 10:30:39;;;;;;;4.35;1.25;;;;;;;21.79;39.83;98746.19;5017538;28;20091;-70
2022/11/23 10:33:12;;;;;;;6.50;1.10;;;;;;;21.20;39.85;98731.34;5014821;28;20550;-70
2022/11/23 10:35:38;;;;;;;2.03;1.10;;;;;;;21.77;40.72;98740.09;5019221;28;20026;-71
2022/11/23 10:38:19;;;;;;;3.17;1.20;;;;;;;21.94;39.30;98730.28;5017983;28;20028;-70
2022/11/23 10:40:57;;;;;;;3.38;1.30;;;;;;;21.47;39.14;98734.06;5016712;28;20786;-71
2022/11/23 10:43:26;;;;;;;3.55;1.02;;;;;;;20.94;41.05;98726.53;5018331;28;20087;-70
2022/11/23 10:46:24;;;;;;;2.60;0.82;;;;;;;21.02;41.10;98716.88;5019617;28;20256;-70
2022/11/23 10:48:51;;;;;;;5.55;1.13;;;;;;;21.50;40.93;98721.09;5018062;28;20029;-70
2022/11/23 10:51:28;;;;;;;5.22;1.20;;;;;;;21.66;38.96;98715.88;5035585;28;20420;-70
2022/11/23 10:54:04;;;;;;;7.85;1.33;;;;;;;21.79;39.33;98708.31;5017869;28;20060;-70
2022/11/23 10:56:31;;;;;;;4.28;1.10;;;;;;;21.72;39.78;98709.00;5017579;28;20049;-70
2022/11/23 10:58:57;;;;;;;2.45;0.90;;;;;;;21.70;39.25;98708.31;5014156;28;20025;-70
2022/11/23 11:01:24;;;;;;;4.15;1.27;;;;;;;21.71;39.92;98699.19;5016890;28;20572;-70
2022/11/23 11:03:55;;;;;;;4.22;0.90;;;;;;;22.22;39.52;98693.16;5018347;28;20438;-70
2022/11/23 11:06:26;;;;;;;2.35;0.93;;;;;;;22.29;38.62;98692.38;5039369;28;20095;-70
2022/11/23 11:08:57;;;;;;;3.05;0.75;;;;;;;22.24;39.15;98692.00;5018860;28;20041;-70
2022/11/23 11:11:30;;;;;;;3.80;1.00;;;;;;;21.46;39.16;98694.47;5016134;28;20053;-70
2022/11/23 11:14:16;;;;;;;5.43;1.55;;;;;;;21.56;40.24;98692.59;5018235;28;20029;-70
2022/11/23 11:16:55;;;;;;;3.83;1.08;;;;;;;21.36;39.49;98662.06;5017294;28;20436;-70
2022/11/23 11:19:33;;;;;;;5.55;0.88;;;;;;;21.89;41.23;98687.41;5019899;28;20033;-69
2022/11/23 11:22:00;;;;;;;2.53;0.90;;;;;;;;;;5017084;28;20080;-70
2022/11/23 11:24:43;;;;;;;4.10;1.33;;;;;;;22.35;39.85;98678.22;5016486;28;20106;-70
2022/11/23 11:27:14;;;;;;;;;;;;;;;22.55;36.59;98679.78;5018817;28;20057;-70
2022/11/23 11:29:42;;;;;;;3.33;1.08;;;;;;;22.27;34.82;98680.88;5016443;28;19928;-70
2022/11/23 11:32:48;;;;;;;3.28;1.40;;;;;;;22.15;37.38;98671.25;5016050;28;20022;-69
2022/11/23 11:35:24;;;;;;;3.38;1.17;;;;;;;21.05;34.85;98667.91;5014066;28;20049;-69
2022/11/23 11:37:53;;;;;;;6.05;1.10;;;;;;;20.61;35.52;98675.66;5014963;28;20799;-69